Lemoyne, Nebraska
Current Conditions -  °F | °C
As of 12:35 PM on Wednesday 17 Dec 2014 (Local Time) from KOGA Reporting Station
Overcast Overcast  
Wind Chill: 13°   Ceiling: 400
Heat Index: 22°   Visibility: 7mi
Dew Point: 21°   Wind: 8mph
Humidity: 96%   Direction: 180°S
Pressure: 30.06"   Gusts: NA
Location:  41.27°N, 101.81°W
Report Text: KOGA 171935Z AUTO 18007KT 7SM OVC004 M05/M06 A3006 RMK AO2 T10551060
Loading
Personal Weather Stations






























Interactive Weather Map New forecast layout! Learn more

10-Day Weather Forecast

Advertisements
Track Severe Weather on mobile